createdAt,value
2022-12-03T00:00:13.509Z,101614.14
2022-12-03T00:02:41.191Z,101617.20
2022-12-03T00:05:08.543Z,101613.69
2022-12-03T00:07:35.398Z,101612.88
2022-12-03T00:10:02.344Z,101610.52
2022-12-03T00:12:29.070Z,101607.14
2022-12-03T00:14:56.595Z,101607.21
2022-12-03T00:17:23.371Z,101606.60
2022-12-03T00:19:50.073Z,101603.67
2022-12-03T00:22:16.761Z,101603.98
2022-12-03T00:24:43.435Z,101603.59
2022-12-03T00:27:10.240Z,101602.99
2022-12-03T00:29:38.534Z,101603.52
2022-12-03T00:32:32.658Z,101600.35
2022-12-03T00:39:12.150Z,101596.25
2022-12-03T00:45:57.388Z,101592.40
2022-12-03T00:48:24.287Z,101589.48
2022-12-03T00:50:51.233Z,101593.71
2022-12-03T00:53:18.256Z,101593.07
2022-12-03T00:55:45.182Z,101591.31
2022-12-03T00:58:11.871Z,101592.02
2022-12-03T01:00:38.616Z,101591.02
2022-12-03T01:03:05.905Z,101590.84
2022-12-03T01:05:32.512Z,101591.64
2022-12-03T01:07:59.217Z,101588.21
2022-12-03T01:10:25.986Z,101583.98
2022-12-03T01:12:52.794Z,101584.95
2022-12-03T01:15:19.589Z,101585.05
2022-12-03T01:17:46.250Z,101581.40
2022-12-03T01:20:13.671Z,101582.23
2022-12-03T01:22:40.302Z,101583.21
2022-12-03T01:25:07.518Z,101584.00
2022-12-03T01:27:34.201Z,101578.65
2022-12-03T01:30:00.831Z,101575.23
2022-12-03T01:32:27.470Z,101576.45
2022-12-03T01:34:56.101Z,101574.60
2022-12-03T01:37:25.808Z,101576.48
2022-12-03T01:39:52.974Z,101574.24
2022-12-03T01:42:25.960Z,101577.14
2022-12-03T01:44:56.331Z,101574.90
2022-12-03T01:47:28.825Z,101573.93
2022-12-03T01:50:08.679Z,101575.61
2022-12-03T01:52:38.623Z,101574.41
2022-12-03T01:55:11.861Z,101570.47
2022-12-03T01:57:46.032Z,101569.16
2022-12-03T02:00:16.197Z,101569.26
2022-12-03T02:02:42.891Z,101565.83
2022-12-03T02:05:18.174Z,101567.80
2022-12-03T02:07:45.230Z,101569.48
2022-12-03T02:10:14.037Z,101573.19
2022-12-03T02:13:03.265Z,101575.16
2022-12-03T02:15:29.913Z,101571.48
2022-12-03T02:17:58.150Z,101577.34
2022-12-03T02:20:25.438Z,101575.31
2022-12-03T02:22:55.044Z,101575.85
2022-12-03T02:25:26.901Z,101576.15
2022-12-03T02:27:54.804Z,101572.52
2022-12-03T02:30:24.902Z,101575.79
2022-12-03T02:32:53.703Z,101579.18
2022-12-03T02:35:23.503Z,101578.55
2022-12-03T02:38:06.653Z,101580.02
2022-12-03T02:40:34.081Z,101580.20
2022-12-03T02:43:03.758Z,101576.30
2022-12-03T02:45:32.383Z,101575.29
2022-12-03T02:48:25.763Z,101577.02
2022-12-03T02:50:57.868Z,101574.73
2022-12-03T02:53:52.016Z,101578.80
2022-12-03T02:56:22.926Z,101574.66
2022-12-03T02:58:53.224Z,101576.84
2022-12-03T03:01:20.230Z,101575.70
2022-12-03T03:03:49.605Z,101576.19
2022-12-03T03:06:18.441Z,101573.45
2022-12-03T03:08:45.418Z,101575.95
2022-12-03T03:11:12.403Z,101574.14
2022-12-03T03:13:39.658Z,101574.48
2022-12-03T03:16:07.702Z,101571.77
2022-12-03T03:18:35.594Z,101573.76
2022-12-03T03:21:03.292Z,101568.45
2022-12-03T03:23:29.954Z,101570.04
2022-12-03T03:25:58.599Z,101565.14
2022-12-03T03:28:27.064Z,101567.92
2022-12-03T03:30:54.828Z,101566.75
2022-12-03T03:33:22.214Z,101564.55
2022-12-03T03:35:49.923Z,101566.83
2022-12-03T03:38:19.828Z,101567.77
2022-12-03T03:40:48.606Z,101563.30
2022-12-03T03:43:15.538Z,101561.56
2022-12-03T03:45:43.164Z,101562.44
2022-12-03T03:48:11.207Z,101564.73
2022-12-03T03:50:38.142Z,101557.66
2022-12-03T03:53:05.740Z,101560.04
2022-12-03T03:55:33.741Z,101554.80
2022-12-03T03:58:00.355Z,101554.52
2022-12-03T04:00:27.207Z,101551.81
2022-12-03T04:02:54.452Z,101548.27
2022-12-03T04:05:23.128Z,101551.16
2022-12-03T04:07:51.031Z,101551.41
2022-12-03T04:10:36.415Z,101550.45
2022-12-03T04:13:04.032Z,101548.00
2022-12-03T04:15:30.780Z,101554.11
2022-12-03T04:18:16.180Z,101553.57
2022-12-03T04:20:43.053Z,101555.64
2022-12-03T04:23:09.945Z,101557.38
2022-12-03T04:25:55.552Z,101554.72
2022-12-03T04:28:40.829Z,101558.61
2022-12-03T04:31:26.121Z,101548.30
2022-12-03T04:34:11.562Z,101544.77
2022-12-03T04:36:38.646Z,101547.95
2022-12-03T04:39:05.907Z,101549.85
2022-12-03T04:41:33.778Z,101547.09
2022-12-03T04:44:19.147Z,101545.84
2022-12-03T04:46:46.042Z,101544.66
2022-12-03T04:49:12.816Z,101545.25
2022-12-03T04:51:39.549Z,101539.20
2022-12-03T04:54:06.309Z,101539.30
2022-12-03T04:56:33.038Z,101537.06
2022-12-03T04:58:59.749Z,101533.93
2022-12-03T05:01:26.514Z,101534.52
2022-12-03T05:03:53.212Z,101531.27
2022-12-03T05:06:19.983Z,101529.75
2022-12-03T05:08:46.669Z,101535.10
2022-12-03T05:11:13.333Z,101532.29
2022-12-03T05:13:41.308Z,101535.97
2022-12-03T05:16:09.649Z,101530.48
2022-12-03T05:18:36.581Z,101530.38
2022-12-03T05:21:03.282Z,101533.15
2022-12-03T05:23:30.000Z,101530.88
2022-12-03T05:25:56.650Z,101526.52
2022-12-03T05:28:24.408Z,101527.49
2022-12-03T05:30:52.389Z,101528.88
2022-12-03T05:33:19.262Z,101525.38
2022-12-03T05:35:46.248Z,101524.56
2022-12-03T05:38:12.952Z,101521.59
2022-12-03T05:40:40.050Z,101522.02
2022-12-03T05:43:06.735Z,101518.05
2022-12-03T05:45:38.503Z,101517.30
2022-12-03T05:48:09.067Z,101517.38
2022-12-03T05:50:37.611Z,101518.15
2022-12-03T05:53:17.305Z,101513.84
2022-12-03T05:55:44.050Z,101510.94
2022-12-03T05:58:11.714Z,101510.20
2022-12-03T06:00:42.804Z,101512.23
2022-12-03T06:03:10.434Z,101507.67
2022-12-03T06:05:37.366Z,101506.90
2022-12-03T06:08:04.187Z,101510.84
2022-12-03T06:10:31.006Z,101511.38
2022-12-03T06:12:57.841Z,101514.71
2022-12-03T06:15:24.622Z,101511.02
2022-12-03T06:17:51.427Z,101511.59
2022-12-03T06:20:20.815Z,101509.70
2022-12-03T06:22:48.167Z,101514.73
2022-12-03T06:25:15.894Z,101509.70
2022-12-03T06:27:43.088Z,101510.43
2022-12-03T06:30:12.546Z,101510.63
2022-12-03T06:32:39.326Z,101515.31
2022-12-03T06:35:06.276Z,101519.66
2022-12-03T06:37:33.139Z,101517.81
2022-12-03T06:39:59.916Z,101522.73
2022-12-03T06:42:26.671Z,101524.86
2022-12-03T06:44:53.951Z,101524.29
2022-12-03T06:47:20.959Z,101527.07
2022-12-03T06:49:47.666Z,101528.55
2022-12-03T06:52:14.407Z,101531.65
2022-12-03T06:54:41.130Z,101538.46
2022-12-03T06:57:08.049Z,101537.36
2022-12-03T06:59:37.561Z,101539.47
2022-12-03T07:02:04.965Z,101541.58
2022-12-03T07:04:31.848Z,101543.23
2022-12-03T07:06:58.633Z,101540.30
2022-12-03T07:09:25.826Z,101540.98
2022-12-03T07:11:52.782Z,101539.29
2022-12-03T07:14:19.465Z,101537.85
2022-12-03T07:16:46.246Z,101538.13
2022-12-03T07:19:13.255Z,101540.23
2022-12-03T07:25:14.143Z,101539.64
2022-12-03T07:27:42.992Z,101539.89
2022-12-03T07:30:13.625Z,101537.63
2022-12-03T07:32:40.373Z,101536.95
2022-12-03T07:35:07.161Z,101533.46
2022-12-03T07:37:34.458Z,101530.98
2022-12-03T07:40:00.493Z,101526.50
2022-12-03T07:42:26.546Z,101524.92
2022-12-03T07:44:52.839Z,101519.62
2022-12-03T07:47:19.490Z,101514.16
2022-12-03T07:49:45.540Z,101515.85
2022-12-03T07:52:11.739Z,101515.71
2022-12-03T07:54:37.753Z,101511.04
2022-12-03T07:57:03.825Z,101515.94
2022-12-03T07:59:29.808Z,101516.08
2022-12-03T08:01:55.931Z,101513.72
2022-12-03T08:04:21.988Z,101515.48
2022-12-03T08:06:48.517Z,101519.63
2022-12-03T08:09:16.413Z,101515.49
2022-12-03T08:11:44.836Z,101515.23
2022-12-03T08:14:13.923Z,101515.61
2022-12-03T08:16:47.422Z,101517.77
2022-12-03T08:19:16.671Z,101512.23
2022-12-03T08:21:43.288Z,101512.69
2022-12-03T08:24:14.681Z,101510.82
2022-12-03T08:26:43.642Z,101510.73
2022-12-03T08:29:12.128Z,101511.48
2022-12-03T08:31:38.795Z,101513.01
2022-12-03T08:34:20.853Z,101510.88
2022-12-03T08:36:50.090Z,101512.19
2022-12-03T08:39:16.008Z,101521.09
2022-12-03T08:42:00.614Z,101518.23
2022-12-03T08:44:29.399Z,101521.36
2022-12-03T08:47:15.703Z,101523.60
2022-12-03T08:49:44.100Z,101520.64
2022-12-03T08:52:18.879Z,101516.23
2022-12-03T08:54:52.463Z,101524.16
2022-12-03T08:57:21.500Z,101528.04
2022-12-03T08:59:47.625Z,101526.30
2022-12-03T09:02:21.875Z,101524.14
2022-12-03T09:04:47.932Z,101524.05
2022-12-03T09:07:14.196Z,101511.71
2022-12-03T09:09:40.265Z,101512.04
2022-12-03T09:12:06.546Z,101512.61
2022-12-03T09:14:32.564Z,101505.48
2022-12-03T09:16:58.769Z,101508.09
2022-12-03T09:19:26.537Z,101513.34
2022-12-03T09:21:53.652Z,101513.60
2022-12-03T09:24:20.272Z,101509.02
2022-12-03T09:26:46.352Z,101503.09
2022-12-03T09:29:12.975Z,101502.09
2022-12-03T09:31:39.618Z,101498.38
2022-12-03T09:34:06.329Z,101490.42
2022-12-03T09:36:32.902Z,101493.67
2022-12-03T09:38:59.025Z,101492.42
2022-12-03T09:41:25.841Z,101488.21
2022-12-03T09:44:15.580Z,101486.50
2022-12-03T09:46:41.439Z,101484.27
2022-12-03T09:49:15.867Z,101479.07
2022-12-03T09:51:43.714Z,101480.64
2022-12-03T09:54:27.348Z,101481.15
2022-12-03T09:56:55.734Z,101483.91
2022-12-03T09:59:25.659Z,101480.12
2022-12-03T10:01:52.984Z,101483.97
2022-12-03T10:04:19.480Z,101479.04
2022-12-03T10:06:46.493Z,101474.11
2022-12-03T10:09:16.828Z,101477.57
2022-12-03T10:11:42.846Z,101473.88
2022-12-03T10:14:12.635Z,101470.56
2022-12-03T10:16:40.499Z,101464.17
2022-12-03T10:19:11.039Z,101460.05
2022-12-03T10:21:38.393Z,101461.02
2022-12-03T10:24:28.296Z,101462.04
2022-12-03T10:26:57.099Z,101459.19
2022-12-03T10:29:31.585Z,101455.88
2022-12-03T10:32:08.774Z,101454.85
2022-12-03T10:34:36.975Z,101460.43
2022-12-03T10:37:22.304Z,101461.91
2022-12-03T10:39:56.593Z,101465.21
2022-12-03T10:42:24.508Z,101457.91
2022-12-03T10:45:07.868Z,101455.40
2022-12-03T10:47:34.480Z,101452.55
2022-12-03T10:50:03.874Z,101453.90
2022-12-03T10:52:30.267Z,101458.74
2022-12-03T10:54:56.471Z,101451.56
2022-12-03T10:57:22.965Z,101443.48
2022-12-03T10:59:49.342Z,101444.27
2022-12-03T11:02:22.072Z,101435.52
2022-12-03T11:04:49.015Z,101438.64
2022-12-03T11:07:19.711Z,101438.84
2022-12-03T11:09:51.358Z,101440.03
2022-12-03T11:12:23.580Z,101435.39
2022-12-03T11:14:56.071Z,101438.07
2022-12-03T11:17:52.487Z,101435.01
2022-12-03T11:20:24.233Z,101434.17
2022-12-03T11:22:57.597Z,101432.21
2022-12-03T11:25:26.673Z,101436.94
2022-12-03T11:28:11.772Z,101442.38
2022-12-03T11:31:00.957Z,101438.54
2022-12-03T11:33:33.179Z,101445.27
2022-12-03T11:36:02.129Z,101439.86
2022-12-03T11:38:36.973Z,101438.25
2022-12-03T11:41:10.127Z,101431.77
2022-12-03T11:43:57.089Z,101432.80
2022-12-03T11:46:42.898Z,101432.05
2022-12-03T11:49:37.368Z,101435.23
2022-12-03T11:52:19.348Z,101433.95
2022-12-03T11:54:49.800Z,101434.90
2022-12-03T11:57:25.954Z,101426.36
2022-12-03T12:00:02.901Z,101420.14
2022-12-03T12:02:38.192Z,101415.02
2022-12-03T12:05:16.187Z,101415.21
2022-12-03T12:07:42.367Z,101413.40
2022-12-03T12:10:08.751Z,101406.02
2022-12-03T12:12:54.752Z,101398.77
2022-12-03T12:15:39.669Z,101405.87
2022-12-03T12:18:33.472Z,101408.49
2022-12-03T12:21:36.807Z,101414.85
2022-12-03T12:24:40.708Z,101416.68
2022-12-03T12:27:09.977Z,101413.87
2022-12-03T12:29:39.621Z,101412.05
2022-12-03T12:32:08.497Z,101411.01
2022-12-03T12:34:36.830Z,101410.70
2022-12-03T12:37:05.933Z,101408.83
2022-12-03T12:39:32.097Z,101409.44
2022-12-03T12:41:58.944Z,101405.30
2022-12-03T12:44:26.051Z,101403.73
2022-12-03T12:46:54.301Z,101406.20
2022-12-03T12:49:26.156Z,101401.92
2022-12-03T12:51:52.231Z,101401.63
2022-12-03T12:54:18.853Z,101399.42
2022-12-03T12:56:49.397Z,101405.61
2022-12-03T12:59:20.571Z,101405.62
2022-12-03T13:01:49.681Z,101404.66
2022-12-03T13:04:19.119Z,101405.84
2022-12-03T13:06:47.243Z,101408.30
2022-12-03T13:09:24.790Z,101407.49
2022-12-03T13:11:57.510Z,101404.41
2022-12-03T13:14:29.280Z,101403.68
2022-12-03T13:16:58.449Z,101403.27
2022-12-03T13:19:27.115Z,101402.14
2022-12-03T13:21:55.622Z,101400.08
2022-12-03T13:24:43.781Z,101403.63
2022-12-03T13:27:19.201Z,101408.39
2022-12-03T13:29:53.054Z,101411.17
2022-12-03T13:32:23.414Z,101411.65
2022-12-03T13:34:50.038Z,101413.23
2022-12-03T13:37:21.823Z,101413.44
2022-12-03T13:39:51.024Z,101412.32
2022-12-03T13:42:41.016Z,101417.36
2022-12-03T13:45:15.806Z,101415.36
2022-12-03T13:47:45.326Z,101417.23
2022-12-03T13:50:29.083Z,101416.10
2022-12-03T13:52:56.324Z,101412.68
2022-12-03T13:55:27.113Z,101413.23
2022-12-03T13:57:54.301Z,101413.30
2022-12-03T14:00:20.515Z,101414.02
2022-12-03T14:02:46.663Z,101416.25
2022-12-03T14:05:13.216Z,101414.08
2022-12-03T14:07:39.797Z,101411.30
2022-12-03T14:10:07.107Z,101411.36
2022-12-03T14:12:33.805Z,101414.36
2022-12-03T14:15:01.800Z,101415.30
2022-12-03T14:17:29.871Z,101413.01
2022-12-03T14:19:57.036Z,101415.88
2022-12-03T14:22:24.704Z,101413.38
2022-12-03T14:24:52.294Z,101415.98
2022-12-03T14:27:19.565Z,101413.33
2022-12-03T14:29:46.018Z,101412.27
2022-12-03T14:32:12.090Z,101411.80
2022-12-03T14:34:38.169Z,101416.70
2022-12-03T14:37:04.119Z,101416.20
2022-12-03T14:39:30.438Z,101416.98
2022-12-03T14:42:14.374Z,101425.19
2022-12-03T14:44:47.462Z,101426.70
2022-12-03T14:47:15.722Z,101427.27
2022-12-03T14:49:41.965Z,101427.54
2022-12-03T14:52:11.901Z,101422.74
2022-12-03T14:54:39.989Z,101419.28
2022-12-03T14:57:05.973Z,101413.98
2022-12-03T14:59:32.012Z,101416.39
2022-12-03T15:01:58.212Z,101420.13
2022-12-03T15:04:24.453Z,101423.52
2022-12-03T15:06:50.569Z,101429.27
2022-12-03T15:09:16.569Z,101427.95
2022-12-03T15:11:46.080Z,101432.92
2022-12-03T15:14:12.546Z,101440.09
2022-12-03T15:16:39.309Z,101438.45
2022-12-03T15:19:05.288Z,101438.61
2022-12-03T15:21:34.244Z,101439.10
2022-12-03T15:24:01.527Z,101441.66
2022-12-03T15:26:27.619Z,101448.70
2022-12-03T15:28:53.581Z,101452.85
2022-12-03T15:31:19.758Z,101450.71
2022-12-03T15:33:45.821Z,101447.21
2022-12-03T15:36:11.967Z,101455.52
2022-12-03T15:38:37.987Z,101454.54
2022-12-03T15:41:20.598Z,101451.34
2022-12-03T15:43:52.909Z,101449.32
2022-12-03T15:46:19.657Z,101449.84
2022-12-03T15:48:46.691Z,101450.70
2022-12-03T15:51:12.843Z,101449.44
2022-12-03T15:53:39.669Z,101455.63
2022-12-03T15:56:06.590Z,101456.84
2022-12-03T15:58:32.564Z,101455.42
2022-12-03T16:00:59.093Z,101458.95
2022-12-03T16:03:25.116Z,101462.73
2022-12-03T16:05:53.090Z,101462.67
2022-12-03T16:08:19.174Z,101462.14
2022-12-03T16:10:45.236Z,101459.14
2022-12-03T16:13:11.369Z,101464.96
2022-12-03T16:15:37.872Z,101466.96
2022-12-03T16:18:04.101Z,101464.92
2022-12-03T16:20:30.198Z,101459.22
2022-12-03T16:22:56.153Z,101457.42
2022-12-03T16:25:22.257Z,101464.08
2022-12-03T16:27:48.582Z,101465.20
2022-12-03T16:30:15.308Z,101467.02
2022-12-03T16:32:41.694Z,101469.77
2022-12-03T16:35:08.482Z,101471.15
2022-12-03T16:37:34.801Z,101468.59
2022-12-03T16:40:00.974Z,101469.41
2022-12-03T16:42:27.123Z,101470.36
2022-12-03T16:45:04.383Z,101467.84
2022-12-03T16:47:34.147Z,101469.91
2022-12-03T16:50:02.913Z,101474.73
2022-12-03T16:52:29.043Z,101476.29
2022-12-03T16:54:55.131Z,101474.92
2022-12-03T16:57:21.503Z,101475.79
2022-12-03T16:59:47.575Z,101472.16
2022-12-03T17:02:13.803Z,101466.73
2022-12-03T17:04:40.080Z,101473.86
2022-12-03T17:07:06.127Z,101472.59
2022-12-03T17:09:32.163Z,101470.69
2022-12-03T17:11:58.847Z,101468.73
2022-12-03T17:14:28.580Z,101461.70
2022-12-03T17:16:59.112Z,101458.05
2022-12-03T17:19:25.501Z,101457.01
2022-12-03T17:21:53.612Z,101457.76
2022-12-03T17:24:19.714Z,101458.69
2022-12-03T17:26:45.910Z,101459.36
2022-12-03T17:29:12.019Z,101463.86
2022-12-03T17:31:41.956Z,101460.98
2022-12-03T17:34:09.333Z,101457.93
2022-12-03T17:36:35.425Z,101462.95
2022-12-03T17:39:01.449Z,101461.44
2022-12-03T17:41:27.633Z,101455.34
2022-12-03T17:43:53.812Z,101457.99
2022-12-03T17:46:20.035Z,101456.42
2022-12-03T17:48:46.397Z,101458.09
2022-12-03T17:51:12.497Z,101459.08
2022-12-03T17:53:38.546Z,101458.73
2022-12-03T17:56:05.197Z,101460.28
2022-12-03T17:58:31.323Z,101457.33
2022-12-03T18:01:02.412Z,101461.66
2022-12-03T18:03:29.532Z,101463.91
2022-12-03T18:05:55.636Z,101466.50
2022-12-03T18:08:22.491Z,101466.06
2022-12-03T18:10:48.714Z,101467.73
2022-12-03T18:13:15.097Z,101463.61
2022-12-03T18:15:41.253Z,101462.10
2022-12-03T18:18:07.417Z,101460.20
2022-12-03T18:20:33.829Z,101453.30
2022-12-03T18:23:00.112Z,101449.75
2022-12-03T18:25:26.926Z,101443.10
2022-12-03T18:27:53.088Z,101447.25
2022-12-03T18:30:19.207Z,101445.50
2022-12-03T18:32:45.419Z,101446.83
2022-12-03T18:35:11.503Z,101442.36
2022-12-03T18:37:37.598Z,101440.88
2022-12-03T18:40:12.454Z,101438.04
2022-12-03T18:42:39.467Z,101432.08
2022-12-03T18:45:06.451Z,101434.33
2022-12-03T18:47:32.498Z,101435.23
2022-12-03T18:49:58.890Z,101436.00
2022-12-03T18:52:25.330Z,101440.75
2022-12-03T18:54:52.275Z,101441.13
2022-12-03T18:57:18.366Z,101445.70
2022-12-03T18:59:44.589Z,101452.12
2022-12-03T19:02:32.489Z,101453.34
2022-12-03T19:05:03.748Z,101462.11
2022-12-03T19:07:29.833Z,101467.54
2022-12-03T19:09:56.004Z,101459.34
2022-12-03T19:12:22.195Z,101456.52
2022-12-03T19:14:49.702Z,101459.91
2022-12-03T19:17:15.779Z,101462.02
2022-12-03T19:19:41.759Z,101461.14
2022-12-03T19:22:07.720Z,101460.02
2022-12-03T19:24:34.671Z,101456.10
2022-12-03T19:27:00.812Z,101454.10
2022-12-03T19:29:26.827Z,101456.15
2022-12-03T19:31:52.921Z,101458.39
2022-12-03T19:34:19.693Z,101457.35
2022-12-03T19:36:46.832Z,101459.79
2022-12-03T19:39:13.101Z,101455.63
2022-12-03T19:41:40.591Z,101450.94
2022-12-03T19:44:10.912Z,101452.91
2022-12-03T19:46:37.151Z,101457.48
2022-12-03T19:49:04.239Z,101457.36
2022-12-03T19:51:35.780Z,101454.19
2022-12-03T19:54:04.477Z,101456.69
2022-12-03T19:56:30.796Z,101460.30
2022-12-03T19:58:57.503Z,101471.12
2022-12-03T20:01:26.502Z,101472.11
2022-12-03T20:03:54.788Z,101465.97
2022-12-03T20:06:23.585Z,101469.73
2022-12-03T20:08:50.239Z,101465.97
2022-12-03T20:11:21.955Z,101466.29
2022-12-03T20:13:52.588Z,101463.75
2022-12-03T20:16:18.989Z,101459.77
2022-12-03T20:18:47.371Z,101457.34
2022-12-03T20:21:15.577Z,101456.62
2022-12-03T20:23:42.135Z,101454.90
2022-12-03T20:26:14.731Z,101449.84
2022-12-03T20:28:41.513Z,101437.38
2022-12-03T20:31:12.621Z,101430.34
2022-12-03T20:33:41.197Z,101436.98
2022-12-03T20:36:08.752Z,101435.75
2022-12-03T20:38:36.093Z,101433.76
2022-12-03T20:41:04.877Z,101435.59
2022-12-03T20:43:31.017Z,101440.98
2022-12-03T20:46:02.567Z,101443.78
2022-12-03T20:48:29.223Z,101444.16
2022-12-03T20:50:55.274Z,101454.88
2022-12-03T20:53:25.597Z,101462.73
2022-12-03T20:55:59.847Z,101463.56
2022-12-03T20:58:26.512Z,101459.87
2022-12-03T21:00:52.814Z,101467.83
2022-12-03T21:03:20.036Z,101468.85
2022-12-03T21:05:47.023Z,101472.02
2022-12-03T21:08:13.427Z,101475.98
2022-12-03T21:10:46.665Z,101471.76
2022-12-03T21:13:17.165Z,101470.02
2022-12-03T21:15:44.479Z,101464.73
2022-12-03T21:18:14.326Z,101459.70
2022-12-03T21:20:42.436Z,101459.81
2022-12-03T21:23:08.922Z,101463.88
2022-12-03T21:25:36.082Z,101461.17
2022-12-03T21:28:04.882Z,101467.61
2022-12-03T21:30:31.557Z,101468.59
2022-12-03T21:32:58.154Z,101467.36
2022-12-03T21:35:24.574Z,101461.65
2022-12-03T21:37:51.150Z,101462.08
2022-12-03T21:41:31.825Z,101462.61
2022-12-03T21:44:00.545Z,101460.01
2022-12-03T21:47:12.205Z,101470.42
2022-12-03T21:49:13.936Z,101479.19
2022-12-03T21:56:15.516Z,101474.89
2022-12-03T21:58:43.074Z,101478.22
2022-12-03T22:01:20.660Z,101478.94
2022-12-03T22:04:39.494Z,101475.39
2022-12-03T22:07:05.723Z,101474.19
2022-12-03T22:09:32.478Z,101471.63
2022-12-03T22:12:00.265Z,101473.09
2022-12-03T22:14:27.353Z,101470.98
2022-12-03T22:16:53.372Z,101475.40
2022-12-03T22:19:22.637Z,101473.15
2022-12-03T22:21:48.822Z,101469.23
2022-12-03T22:24:14.894Z,101465.36
2022-12-03T22:26:40.922Z,101465.22
2022-12-03T22:29:06.908Z,101455.27
2022-12-03T22:31:32.999Z,101460.83
2022-12-03T22:33:59.018Z,101466.49
2022-12-03T22:36:25.056Z,101464.59
2022-12-03T22:38:51.062Z,101464.14
2022-12-03T22:41:18.178Z,101462.95
2022-12-03T22:43:44.942Z,101459.47
2022-12-03T22:46:11.917Z,101461.96
2022-12-03T22:48:39.130Z,101460.38
2022-12-03T22:51:13.640Z,101449.71
2022-12-03T22:53:40.136Z,101448.53
2022-12-03T22:56:08.005Z,101452.02
2022-12-03T22:58:34.022Z,101451.92
2022-12-03T23:01:03.235Z,101452.14
2022-12-03T23:03:30.169Z,101450.10
2022-12-03T23:05:56.500Z,101450.51
2022-12-03T23:08:22.660Z,101448.61
2022-12-03T23:10:50.874Z,101447.12
2022-12-03T23:13:18.338Z,101445.95
2022-12-03T23:15:50.052Z,101449.31
2022-12-03T23:18:17.153Z,101450.30
2022-12-03T23:20:50.062Z,101451.75
2022-12-03T23:23:17.322Z,101457.15
2022-12-03T23:26:10.350Z,101453.87
2022-12-03T23:28:38.209Z,101453.11
2022-12-03T23:31:05.266Z,101448.05
2022-12-03T23:33:36.694Z,101451.44
2022-12-03T23:36:05.916Z,101455.70
2022-12-03T23:38:32.066Z,101442.63
2022-12-03T23:41:06.730Z,101438.58
2022-12-03T23:43:32.968Z,101439.45
2022-12-03T23:46:04.691Z,101440.01
2022-12-03T23:48:30.848Z,101439.97
2022-12-03T23:50:56.946Z,101435.21
2022-12-03T23:53:48.216Z,101436.70
2022-12-03T23:56:16.968Z,101438.31
2022-12-03T23:58:43.323Z,101441.05
